Airfield :
LOGIN :

Register | Disclaimer

   EN    FR    IT 

 










Legend :    VFR   Marginal VFR   IFR   Intensive IFR   Very Intensive IFR
Visi :
Ceiling :
>= 8 km
>= 3000ft
5 to 8 km
1000 to 3000 ft
1500m to 5 km
500 to 1000 ft
800 to 1500m
200 to 500 ft
< 800m
< 200 ft
Symbols :   Thunderstorms  Fog  Heavy snow  Heavy precipitations  Wind > 20 kt
SIGMETs :     Misc.  Thunderstorms  Icing  Turbulence  Mountain Waves  Volcanic Ashes






- Airport Elevation : -15 ft
- IATA code : RTM


EHRD - Rotterdam Zestienhoven

CURRENT METAR :
  • 130425Z AUTO 14011KT 9999 BKN009 FEW015CB 05/03 Q0972 TEMPO BKN008

EXPIRED METARs :
  • 130355Z AUTO 15012KT 9999 OVC010 05/03 Q0972 TEMPO BKN008
  • 130325Z AUTO 15011KT 9999 OVC010 05/03 Q0973 NOSIG
  • 130255Z AUTO 16013KT 130V200 9999 OVC010 05/03 Q0974 NOSIG
  • 130225Z AUTO 17015KT 130V200 9999 OVC010 05/03 Q0974 NOSIG
  • 130155Z AUTO 16018KT 9999 BKN010 OVC012 05/03 Q0975 NOSIG

TAF COR TAF EHRD
Valid from the 13 at 00:00 until the 14 at 06:00 UTC


130129Z 1300/1406 16017G27KT 9999 SCT009 BKN012
TEMPO 1302/1305 BKN007
BECMG 1304/1307 09005KT 4000 RADZ BKN007
BECMG 1309/1312 35005KT
BECMG 1314/1316 29012KT 9999 NSW BKN025
PROB30
TEMPO 1316/1324 7000 -SHRA SCT015TCU BKN020
BECMG 1317/1320 26015KT
BECMG 1403/1406 20010KT 5000 -RA BKN010



MET'MAP, your aeronautical weather chart ! - Copyright ORBIFLY December 2007 - Disclaimer

ORBIFLY MET'MAP TEAM :

Programming & Development : Alexandra Zaïnal
Concept & original design : Baudouin d'Aumeries
Assistance for programming : Marc-Olivier Méhu
Technical & hardware support : Manuel Goepfert

Contact : metmap@orbifly.com




SOURCES & CREDITS :

   NOAA